createdAt,value
2017-12-27T00:01:07.540Z,1.80
2017-12-27T00:03:41.506Z,2.00
2017-12-27T00:06:14.626Z,1.90
2017-12-27T00:08:48.439Z,1.83
2017-12-27T00:11:21.828Z,1.70
2017-12-27T00:13:54.816Z,1.70
2017-12-27T00:16:28.060Z,1.63
2017-12-27T00:22:02.062Z,1.10
2017-12-27T00:24:35.851Z,1.20
2017-12-27T00:27:08.997Z,1.57
2017-12-27T00:29:41.991Z,1.00
2017-12-27T00:32:15.145Z,1.50
2017-12-27T00:34:43.186Z,1.20
2017-12-27T00:37:10.720Z,1.00
2017-12-27T00:39:38.132Z,1.10
2017-12-27T00:42:05.818Z,1.30
2017-12-27T00:44:33.295Z,1.30
2017-12-27T00:47:00.699Z,1.20
2017-12-27T00:49:28.879Z,1.07
2017-12-27T00:51:56.294Z,1.13
2017-12-27T00:54:23.719Z,0.97
2017-12-27T00:56:51.152Z,1.43
2017-12-27T00:59:19.166Z,1.30
2017-12-27T01:01:47.293Z,1.23
2017-12-27T01:04:15.242Z,0.90
2017-12-27T01:06:44.156Z,1.17
2017-12-27T01:09:11.622Z,1.40
2017-12-27T01:11:39.178Z,1.20
2017-12-27T01:14:06.595Z,1.63
2017-12-27T01:16:34.008Z,1.20
2017-12-27T01:19:01.839Z,0.90
2017-12-27T01:21:29.229Z,0.73
2017-12-27T01:23:57.107Z,1.27
2017-12-27T01:26:36.644Z,1.00
2017-12-27T01:29:05.111Z,1.13
2017-12-27T01:31:32.943Z,0.80
2017-12-27T01:34:01.156Z,1.07
2017-12-27T01:36:29.094Z,1.07
2017-12-27T01:38:57.311Z,1.10
2017-12-27T01:41:25.279Z,1.00
2017-12-27T01:43:52.709Z,1.17
2017-12-27T01:46:20.120Z,1.00
2017-12-27T01:48:47.547Z,1.07
2017-12-27T01:51:14.961Z,1.30
2017-12-27T01:53:43.181Z,0.90
2017-12-27T01:56:12.148Z,1.30
2017-12-27T01:58:40.130Z,1.20
2017-12-27T02:01:07.546Z,1.20
2017-12-27T02:03:36.572Z,1.00
2017-12-27T02:06:03.992Z,1.00
2017-12-27T02:08:31.456Z,1.27
2017-12-27T02:10:59.667Z,1.07
2017-12-27T02:13:27.078Z,1.20
2017-12-27T02:15:54.911Z,1.20
2017-12-27T02:18:22.322Z,1.27
2017-12-27T02:20:49.750Z,1.20
2017-12-27T02:23:17.164Z,1.27
2017-12-27T02:25:44.591Z,1.47
2017-12-27T02:28:12.007Z,1.10
2017-12-27T02:30:39.447Z,1.00
2017-12-27T02:33:06.863Z,1.13
2017-12-27T02:35:34.287Z,1.13
2017-12-27T02:38:02.099Z,0.90
2017-12-27T02:40:29.527Z,0.93
2017-12-27T02:42:58.259Z,1.00
2017-12-27T02:45:25.681Z,1.43
2017-12-27T02:47:53.877Z,1.40
2017-12-27T02:50:21.699Z,1.50
2017-12-27T02:52:49.115Z,1.30
2017-12-27T02:55:18.461Z,1.37
2017-12-27T02:57:46.180Z,1.40
2017-12-27T03:00:14.533Z,1.50
2017-12-27T03:02:42.651Z,1.70
2017-12-27T03:05:10.054Z,2.07
2017-12-27T03:07:38.679Z,2.10
2017-12-27T03:10:06.105Z,1.80
2017-12-27T03:12:33.975Z,2.00
2017-12-27T03:15:01.398Z,1.80
2017-12-27T03:17:28.811Z,1.50
2017-12-27T03:19:56.240Z,1.10
2017-12-27T03:22:26.075Z,1.73
2017-12-27T03:24:53.903Z,1.93
2017-12-27T03:27:22.087Z,1.80
2017-12-27T03:29:49.508Z,2.47
2017-12-27T03:32:16.941Z,1.70
2017-12-27T03:34:44.361Z,1.40
2017-12-27T03:37:12.870Z,1.70
2017-12-27T03:39:40.287Z,1.20
2017-12-27T03:42:08.469Z,1.47
2017-12-27T03:44:35.883Z,1.13
2017-12-27T03:47:03.315Z,1.20
2017-12-27T03:49:30.726Z,1.60
2017-12-27T03:51:59.182Z,2.30
2017-12-27T03:54:26.574Z,2.00
2017-12-27T03:56:53.999Z,1.90
2017-12-27T03:59:21.878Z,1.77
2017-12-27T04:01:50.092Z,1.63
2017-12-27T04:04:18.042Z,1.70
2017-12-27T04:06:45.465Z,1.70
2017-12-27T04:09:12.879Z,1.40
2017-12-27T04:11:40.701Z,1.77
2017-12-27T04:14:08.897Z,2.17
2017-12-27T04:16:36.307Z,2.20
2017-12-27T04:19:03.748Z,2.10
2017-12-27T04:21:31.174Z,1.97
2017-12-27T04:23:59.453Z,1.60
2017-12-27T04:26:28.139Z,1.53
2017-12-27T04:28:55.563Z,1.83
2017-12-27T04:31:22.992Z,1.43
2017-12-27T04:33:51.521Z,1.50
2017-12-27T04:36:18.935Z,1.40
2017-12-27T04:38:46.363Z,1.80
2017-12-27T04:41:13.792Z,2.17
2017-12-27T04:43:44.415Z,1.97
2017-12-27T04:46:12.594Z,1.87
2017-12-27T04:48:41.155Z,1.40
2017-12-27T04:51:09.115Z,1.87
2017-12-27T04:53:36.534Z,1.63
2017-12-27T04:56:03.956Z,1.80
2017-12-27T04:58:32.679Z,1.80
2017-12-27T05:01:00.099Z,1.50
2017-12-27T05:03:28.711Z,1.90
2017-12-27T05:05:56.132Z,1.67
2017-12-27T05:08:24.335Z,1.37
2017-12-27T05:10:52.446Z,2.10
2017-12-27T05:13:20.138Z,1.77
2017-12-27T05:15:48.178Z,1.63
2017-12-27T05:18:17.075Z,2.00
2017-12-27T05:20:45.435Z,1.60
2017-12-27T05:23:13.622Z,1.80
2017-12-27T05:25:41.054Z,1.53
2017-12-27T05:28:08.479Z,2.00
2017-12-27T05:30:36.676Z,1.93
2017-12-27T05:33:04.087Z,1.50
2017-12-27T05:35:31.510Z,1.60
2017-12-27T05:37:58.928Z,1.90
2017-12-27T05:40:26.355Z,1.53
2017-12-27T05:42:56.623Z,1.93
2017-12-27T05:45:24.497Z,1.83
2017-12-27T05:47:51.921Z,1.60
2017-12-27T05:50:20.106Z,1.90
2017-12-27T05:52:47.528Z,1.73
2017-12-27T05:55:15.251Z,2.00
2017-12-27T05:57:42.671Z,2.13
2017-12-27T06:00:10.881Z,2.07
2017-12-27T06:02:38.320Z,1.93
2017-12-27T06:05:05.743Z,2.00
2017-12-27T06:07:33.158Z,2.23
2017-12-27T06:10:01.250Z,1.80
2017-12-27T06:12:29.380Z,2.17
2017-12-27T06:14:56.795Z,2.60
2017-12-27T06:17:24.928Z,2.53
2017-12-27T06:19:52.352Z,2.87
2017-12-27T06:22:21.080Z,2.50
2017-12-27T06:24:48.494Z,2.17
2017-12-27T06:27:16.682Z,2.10
2017-12-27T06:29:44.099Z,2.10
2017-12-27T06:32:11.530Z,1.80
2017-12-27T06:34:38.940Z,2.27
2017-12-27T06:37:07.130Z,2.20
2017-12-27T06:39:34.550Z,2.17
2017-12-27T06:42:02.759Z,2.13
2017-12-27T06:44:30.184Z,2.20
2017-12-27T06:46:58.381Z,2.30
2017-12-27T06:49:26.569Z,2.13
2017-12-27T06:51:53.988Z,1.93
2017-12-27T06:54:21.399Z,1.90
2017-12-27T06:56:48.829Z,2.00
2017-12-27T06:59:16.238Z,2.33
2017-12-27T07:01:43.655Z,1.97
2017-12-27T07:04:11.075Z,2.10
2017-12-27T07:06:39.277Z,2.20
2017-12-27T07:09:08.653Z,2.43
2017-12-27T07:11:36.509Z,2.23
2017-12-27T07:14:04.618Z,2.17
2017-12-27T07:16:32.048Z,2.20
2017-12-27T07:18:59.461Z,2.37
2017-12-27T07:21:26.883Z,2.20
2017-12-27T07:23:54.371Z,2.73
2017-12-27T07:26:21.779Z,2.23
2017-12-27T07:28:57.281Z,2.73
2017-12-27T07:31:31.390Z,2.77
2017-12-27T07:33:58.818Z,2.60
2017-12-27T07:36:40.608Z,3.60
2017-12-27T07:39:08.935Z,2.87
2017-12-27T07:41:36.357Z,3.50
2017-12-27T07:44:03.778Z,3.17
2017-12-27T07:46:32.788Z,4.93
2017-12-27T07:49:00.208Z,9.00
2017-12-27T07:51:31.003Z,14.10
2017-12-27T07:53:58.431Z,4.13
2017-12-27T07:56:26.631Z,4.60
2017-12-27T07:58:54.333Z,3.53
2017-12-27T08:01:21.735Z,8.20
2017-12-27T08:03:49.168Z,2.97
2017-12-27T08:06:17.748Z,2.40
2017-12-27T08:08:46.376Z,2.77
2017-12-27T08:11:14.206Z,1.90
2017-12-27T08:13:42.399Z,2.10
2017-12-27T08:16:09.815Z,1.77
2017-12-27T08:18:37.235Z,1.63
2017-12-27T08:21:04.657Z,1.53
2017-12-27T08:23:32.842Z,1.53
2017-12-27T08:26:00.265Z,1.40
2017-12-27T08:28:27.686Z,1.57
2017-12-27T08:30:56.099Z,1.90
2017-12-27T08:33:23.789Z,1.90
2017-12-27T08:35:51.187Z,1.70
2017-12-27T08:38:19.371Z,1.40
2017-12-27T08:40:46.801Z,1.30
2017-12-27T08:43:14.218Z,1.37
2017-12-27T08:45:43.528Z,1.53
2017-12-27T08:48:14.371Z,1.60
2017-12-27T08:50:41.777Z,1.57
2017-12-27T08:53:09.187Z,1.40
2017-12-27T08:55:36.611Z,1.43
2017-12-27T08:58:04.024Z,1.60
2017-12-27T09:00:31.447Z,1.47
2017-12-27T09:02:59.636Z,1.57
2017-12-27T09:05:27.479Z,1.50
2017-12-27T09:07:55.654Z,1.70
2017-12-27T09:10:23.851Z,1.67
2017-12-27T09:12:51.485Z,1.30
2017-12-27T09:15:19.687Z,1.40
2017-12-27T09:17:52.599Z,1.37
2017-12-27T09:20:20.044Z,1.83
2017-12-27T09:22:47.462Z,1.57
2017-12-27T09:25:15.655Z,1.70
2017-12-27T09:27:43.071Z,1.70
2017-12-27T09:30:10.488Z,1.77
2017-12-27T09:32:38.348Z,1.40
2017-12-27T09:35:06.511Z,1.80
2017-12-27T09:37:33.930Z,1.67
2017-12-27T09:40:01.348Z,1.50
2017-12-27T09:42:28.774Z,1.90
2017-12-27T09:44:56.959Z,1.77
2017-12-27T09:47:24.381Z,1.30
2017-12-27T09:49:52.631Z,1.60
2017-12-27T09:52:21.539Z,1.30
2017-12-27T09:54:48.930Z,1.60
2017-12-27T09:57:17.520Z,1.50
2017-12-27T09:59:44.934Z,1.40
2017-12-27T10:02:12.354Z,1.50
2017-12-27T10:04:39.766Z,1.73
2017-12-27T10:07:07.958Z,1.70
2017-12-27T10:09:35.370Z,1.60
2017-12-27T10:12:03.606Z,1.63
2017-12-27T10:14:31.028Z,1.70
2017-12-27T10:16:59.223Z,1.83
2017-12-27T10:19:26.640Z,1.77
2017-12-27T10:21:54.068Z,1.50
2017-12-27T10:24:21.903Z,1.50
2017-12-27T10:26:49.321Z,1.70
2017-12-27T10:29:16.731Z,1.80
2017-12-27T10:31:44.147Z,1.80
2017-12-27T10:34:12.163Z,1.47
2017-12-27T10:36:40.002Z,1.67
2017-12-27T10:39:08.916Z,2.20
2017-12-27T10:41:36.328Z,1.50
2017-12-27T10:44:03.751Z,1.60
2017-12-27T10:46:31.179Z,1.67
2017-12-27T10:48:58.614Z,1.43
2017-12-27T10:51:26.804Z,1.40
2017-12-27T10:53:54.228Z,1.50
2017-12-27T10:56:25.459Z,1.40
2017-12-27T10:58:52.890Z,1.70
2017-12-27T11:01:21.820Z,1.60
2017-12-27T11:03:49.332Z,1.80
2017-12-27T11:06:16.735Z,1.67
2017-12-27T11:08:44.164Z,1.90
2017-12-27T11:11:11.578Z,1.67
2017-12-27T11:13:39.712Z,1.70
2017-12-27T11:16:07.448Z,1.70
2017-12-27T11:18:35.512Z,1.87
2017-12-27T11:21:02.902Z,1.70
2017-12-27T11:23:30.667Z,1.80
2017-12-27T11:25:58.628Z,1.83
2017-12-27T11:28:27.265Z,1.80
2017-12-27T11:30:54.694Z,2.20
2017-12-27T11:33:22.100Z,2.00
2017-12-27T11:35:49.530Z,2.23
2017-12-27T11:38:18.550Z,2.50
2017-12-27T11:40:45.971Z,2.30
2017-12-27T11:43:14.707Z,2.40
2017-12-27T11:45:42.676Z,2.33
2017-12-27T11:48:10.087Z,2.63
2017-12-27T11:50:38.275Z,2.50
2017-12-27T11:53:05.686Z,2.23
2017-12-27T11:55:33.122Z,2.73
2017-12-27T11:58:00.544Z,2.80
2017-12-27T12:00:28.767Z,2.47
2017-12-27T12:02:56.181Z,2.53
2017-12-27T12:05:24.036Z,2.60
2017-12-27T12:07:51.455Z,2.67
2017-12-27T12:10:18.929Z,2.07
2017-12-27T12:12:46.356Z,2.33
2017-12-27T12:15:13.771Z,2.43
2017-12-27T12:17:41.279Z,2.57
2017-12-27T12:20:08.915Z,2.53
2017-12-27T12:22:36.322Z,2.20
2017-12-27T12:25:07.094Z,2.57
2017-12-27T12:27:37.267Z,2.47
2017-12-27T12:30:05.809Z,2.50
2017-12-27T12:32:47.875Z,2.37
2017-12-27T12:35:15.291Z,2.70
2017-12-27T12:37:43.121Z,2.60
2017-12-27T12:40:10.547Z,3.00
2017-12-27T12:42:38.736Z,3.00
2017-12-27T12:45:06.374Z,2.33
2017-12-27T12:47:34.576Z,2.60
2017-12-27T12:50:02.044Z,2.43
2017-12-27T12:52:29.974Z,2.80
2017-12-27T12:54:58.473Z,2.60
2017-12-27T12:57:27.052Z,2.37
2017-12-27T12:59:54.466Z,2.80
2017-12-27T13:02:21.913Z,2.90
2017-12-27T13:04:55.046Z,2.27
2017-12-27T13:07:29.212Z,2.50
2017-12-27T13:09:57.391Z,3.17
2017-12-27T13:12:24.866Z,2.57
2017-12-27T13:14:52.307Z,2.70
2017-12-27T13:17:19.730Z,3.17
2017-12-27T13:19:59.900Z,2.67
2017-12-27T13:22:27.319Z,3.27
2017-12-27T13:24:55.514Z,2.57
2017-12-27T13:27:23.044Z,2.50
2017-12-27T13:29:50.455Z,3.00
2017-12-27T13:32:17.881Z,2.70
2017-12-27T13:34:46.895Z,2.53
2017-12-27T13:37:14.330Z,2.40
2017-12-27T13:39:41.744Z,2.80
2017-12-27T13:42:09.441Z,2.60
2017-12-27T13:44:36.832Z,2.23
2017-12-27T13:47:04.268Z,2.77
2017-12-27T13:49:31.682Z,2.50
2017-12-27T13:51:59.094Z,2.90
2017-12-27T13:54:26.628Z,2.50
2017-12-27T13:56:54.805Z,2.77
2017-12-27T13:59:22.239Z,3.00
2017-12-27T14:01:49.664Z,2.80
2017-12-27T14:04:17.086Z,3.07
2017-12-27T14:06:45.096Z,3.00
2017-12-27T14:09:12.529Z,3.30
2017-12-27T14:11:40.061Z,3.20
2017-12-27T14:14:08.231Z,2.97
2017-12-27T14:16:35.651Z,3.07
2017-12-27T14:19:03.780Z,3.20
2017-12-27T14:21:31.190Z,3.53
2017-12-27T14:24:00.556Z,3.23
2017-12-27T14:26:27.970Z,3.87
2017-12-27T14:28:56.158Z,3.90
2017-12-27T14:31:23.581Z,3.33
2017-12-27T14:33:50.998Z,3.53
2017-12-27T14:36:18.411Z,3.60
2017-12-27T14:38:46.603Z,4.10
2017-12-27T14:41:14.741Z,3.57
2017-12-27T14:43:48.312Z,3.57
2017-12-27T14:46:15.730Z,3.27
2017-12-27T14:48:43.206Z,3.33
2017-12-27T14:51:10.732Z,3.10
2017-12-27T14:53:38.160Z,3.50
2017-12-27T14:56:05.624Z,3.13
2017-12-27T14:58:33.479Z,3.53
2017-12-27T15:01:00.940Z,3.77
2017-12-27T15:03:28.646Z,3.53
2017-12-27T15:05:56.883Z,3.50
2017-12-27T15:08:24.340Z,3.60
2017-12-27T15:10:51.775Z,3.47
2017-12-27T15:13:19.209Z,3.37
2017-12-27T15:15:46.911Z,3.70
2017-12-27T15:18:14.312Z,3.73
2017-12-27T15:20:41.743Z,3.67
2017-12-27T15:23:09.165Z,3.70
2017-12-27T15:25:37.003Z,3.53
2017-12-27T15:28:11.610Z,3.90
2017-12-27T15:30:39.800Z,4.23
2017-12-27T15:33:07.211Z,4.07
2017-12-27T15:35:35.042Z,4.03
2017-12-27T15:38:02.476Z,4.00
2017-12-27T15:40:29.896Z,3.97
2017-12-27T15:42:57.315Z,3.53
2017-12-27T15:45:24.741Z,3.40
2017-12-27T15:48:04.927Z,3.80
2017-12-27T15:50:39.300Z,4.10
2017-12-27T15:53:09.906Z,4.00
2017-12-27T15:55:37.325Z,4.17
2017-12-27T15:58:04.747Z,4.37
2017-12-27T16:00:32.931Z,4.40
2017-12-27T16:03:01.130Z,4.80
2017-12-27T16:05:29.079Z,4.13
2017-12-27T16:07:56.497Z,4.63
2017-12-27T16:10:24.303Z,4.20
2017-12-27T16:12:52.463Z,4.67
2017-12-27T16:15:20.675Z,4.70
2017-12-27T16:17:48.108Z,4.20
2017-12-27T16:20:16.085Z,5.00
2017-12-27T16:22:43.512Z,4.90
2017-12-27T16:25:10.931Z,5.30
2017-12-27T16:27:38.659Z,5.10
2017-12-27T16:30:06.081Z,5.90
2017-12-27T16:32:46.671Z,5.73
2017-12-27T16:35:14.088Z,7.40
2017-12-27T16:37:42.038Z,5.80
2017-12-27T16:40:09.506Z,6.57
2017-12-27T16:42:36.917Z,6.83
2017-12-27T16:45:04.331Z,7.60
2017-12-27T16:47:31.762Z,7.40
2017-12-27T16:49:59.186Z,7.63
2017-12-27T16:52:26.599Z,7.83
2017-12-27T16:54:54.016Z,7.80
2017-12-27T16:57:21.434Z,8.77
2017-12-27T16:59:49.625Z,8.00
2017-12-27T17:02:17.048Z,8.63
2017-12-27T17:04:44.983Z,9.07
2017-12-27T17:07:12.425Z,9.60
2017-12-27T17:09:40.358Z,7.97
2017-12-27T17:12:08.548Z,8.57
2017-12-27T17:14:36.726Z,8.60
2017-12-27T17:17:06.676Z,8.77
2017-12-27T17:19:34.079Z,11.07
2017-12-27T17:22:02.275Z,11.47
2017-12-27T17:24:29.713Z,13.37
2017-12-27T17:26:57.217Z,14.40
2017-12-27T17:29:25.052Z,14.47
2017-12-27T17:31:52.483Z,14.73
2017-12-27T17:34:19.910Z,14.40
2017-12-27T17:36:47.348Z,13.63
2017-12-27T17:39:14.775Z,14.30
2017-12-27T17:41:42.957Z,15.53
2017-12-27T17:44:10.387Z,15.17
2017-12-27T17:46:38.574Z,16.07
2017-12-27T17:49:06.776Z,18.27
2017-12-27T17:51:34.208Z,20.73
2017-12-27T17:54:03.792Z,26.43
2017-12-27T17:56:31.971Z,16.63
2017-12-27T17:59:03.628Z,16.97
2017-12-27T18:01:31.042Z,17.37
2017-12-27T18:03:58.870Z,24.10
2017-12-27T18:06:26.276Z,34.80
2017-12-27T18:08:53.713Z,13.17
2017-12-27T18:11:22.343Z,12.80
2017-12-27T18:13:49.758Z,11.90
2017-12-27T18:16:17.166Z,12.00
2017-12-27T18:18:45.369Z,11.40
2017-12-27T18:21:12.782Z,11.80
2017-12-27T18:23:40.218Z,12.63
2017-12-27T18:26:14.187Z,11.67
2017-12-27T18:28:42.089Z,11.50
2017-12-27T18:31:09.795Z,11.27
2017-12-27T18:33:37.204Z,11.83
2017-12-27T18:36:04.633Z,12.50
2017-12-27T18:38:32.058Z,12.27
2017-12-27T18:40:59.779Z,13.70
2017-12-27T18:43:27.207Z,12.83
2017-12-27T18:45:55.072Z,13.33
2017-12-27T18:48:22.927Z,14.20
2017-12-27T18:50:51.112Z,11.73
2017-12-27T18:53:18.544Z,11.93
2017-12-27T18:55:46.371Z,12.17
2017-12-27T18:58:13.798Z,12.57
2017-12-27T19:00:41.566Z,13.23
2017-12-27T19:03:16.079Z,11.93
2017-12-27T19:05:43.499Z,11.30
2017-12-27T19:08:10.933Z,11.80
2017-12-27T19:10:38.753Z,11.40
2017-12-27T19:13:06.710Z,11.67
2017-12-27T19:15:34.895Z,11.20
2017-12-27T19:18:03.086Z,10.67
2017-12-27T19:20:31.029Z,9.97
2017-12-27T19:22:59.631Z,10.90
2017-12-27T19:25:27.052Z,10.80
2017-12-27T19:27:55.198Z,10.40
2017-12-27T19:30:22.614Z,9.70
2017-12-27T19:32:50.039Z,9.83
2017-12-27T19:35:19.888Z,10.00
2017-12-27T19:37:47.318Z,11.53
2017-12-27T19:40:14.745Z,11.47
2017-12-27T19:42:42.157Z,10.50
2017-12-27T19:45:09.580Z,18.37
2017-12-27T19:47:37.007Z,14.40
2017-12-27T19:50:04.424Z,13.60
2017-12-27T19:52:31.862Z,16.03
2017-12-27T19:55:00.058Z,19.37
2017-12-27T19:57:27.475Z,15.73
2017-12-27T19:59:54.909Z,16.47
2017-12-27T20:02:22.774Z,14.13
2017-12-27T20:04:50.882Z,14.13
2017-12-27T20:07:18.303Z,18.17
2017-12-27T20:09:45.735Z,16.87
2017-12-27T20:12:13.149Z,16.50
2017-12-27T20:14:40.978Z,15.57
2017-12-27T20:17:08.403Z,15.80
2017-12-27T20:19:35.836Z,15.33
2017-12-27T20:22:04.036Z,15.73
2017-12-27T20:24:31.463Z,13.87
2017-12-27T20:26:58.883Z,14.53
2017-12-27T20:29:27.770Z,14.30
2017-12-27T20:31:55.192Z,14.77
2017-12-27T20:34:23.386Z,16.80
2017-12-27T20:36:50.803Z,16.27
2017-12-27T20:39:18.998Z,17.17
2017-12-27T20:41:46.414Z,17.63
2017-12-27T20:44:13.835Z,18.93
2017-12-27T20:46:41.260Z,18.07
2017-12-27T20:51:35.589Z,19.60
2017-12-27T20:54:02.995Z,18.13
2017-12-27T20:56:30.415Z,19.23
2017-12-27T20:58:57.839Z,21.33
2017-12-27T21:01:25.272Z,20.63
2017-12-27T21:03:53.645Z,21.50
2017-12-27T21:06:21.066Z,22.80
2017-12-27T21:08:48.667Z,19.93
2017-12-27T21:11:16.498Z,16.33
2017-12-27T21:13:50.357Z,16.27
2017-12-27T21:16:18.563Z,14.60
2017-12-27T21:18:45.995Z,13.30
2017-12-27T21:21:13.411Z,16.10
2017-12-27T21:23:40.860Z,15.37
2017-12-27T21:26:08.299Z,15.50
2017-12-27T21:28:35.705Z,13.50
2017-12-27T21:31:03.906Z,13.57
2017-12-27T21:33:31.323Z,12.60
2017-12-27T21:35:58.746Z,11.90
2017-12-27T21:38:27.268Z,10.47
2017-12-27T21:40:55.454Z,7.80
2017-12-27T21:43:23.649Z,5.83
2017-12-27T21:45:51.073Z,4.33
2017-12-27T21:48:26.101Z,3.73
2017-12-27T21:50:53.522Z,3.80
2017-12-27T21:53:20.935Z,2.60
2017-12-27T21:55:49.141Z,2.37
2017-12-27T21:58:22.153Z,2.10
2017-12-27T22:00:55.287Z,2.00
2017-12-27T22:03:23.476Z,2.03
2017-12-27T22:05:50.942Z,2.40
2017-12-27T22:08:18.355Z,2.20
2017-12-27T22:10:46.730Z,2.23
2017-12-27T22:13:16.576Z,2.40
2017-12-27T22:15:43.995Z,2.00
2017-12-27T22:18:11.887Z,2.20
2017-12-27T22:20:45.703Z,1.57
2017-12-27T22:23:13.132Z,1.70
2017-12-27T22:25:40.969Z,2.00
2017-12-27T22:28:08.382Z,2.47
2017-12-27T22:30:36.586Z,2.43
2017-12-27T22:33:04.391Z,2.50
2017-12-27T22:35:32.226Z,2.37
2017-12-27T22:37:59.619Z,2.53
2017-12-27T22:40:27.048Z,2.00
2017-12-27T22:42:54.464Z,2.70
2017-12-27T22:45:23.815Z,2.60
2017-12-27T22:47:51.242Z,2.60
2017-12-27T22:50:19.264Z,2.70
2017-12-27T22:52:46.683Z,2.43
2017-12-27T22:55:14.407Z,2.57
2017-12-27T22:57:41.837Z,3.50
2017-12-27T23:00:09.649Z,2.83
2017-12-27T23:02:38.664Z,2.33
2017-12-27T23:05:07.850Z,2.20
2017-12-27T23:07:35.272Z,2.40
2017-12-27T23:10:03.455Z,1.90
2017-12-27T23:12:31.650Z,2.00
2017-12-27T23:14:59.064Z,2.30
2017-12-27T23:17:27.650Z,2.03
2017-12-27T23:19:56.067Z,2.40
2017-12-27T23:22:23.763Z,2.30
2017-12-27T23:24:51.147Z,2.67
2017-12-27T23:27:19.330Z,2.57
2017-12-27T23:29:54.127Z,2.20
2017-12-27T23:32:21.549Z,2.00
2017-12-27T23:34:48.964Z,1.80
2017-12-27T23:37:17.146Z,2.20
2017-12-27T23:39:45.845Z,1.90
2017-12-27T23:42:14.711Z,1.80
2017-12-27T23:44:42.107Z,2.27
2017-12-27T23:47:09.527Z,1.93
2017-12-27T23:49:37.731Z,2.10
2017-12-27T23:52:05.138Z,2.13
2017-12-27T23:54:32.563Z,2.10
2017-12-27T23:56:59.977Z,2.40
2017-12-27T23:59:28.578Z,2.23
